sensor_id;sensor_type;location;lat;lon;timestamp;temperature;humidity
81315;DHT22;72214;52.510;5.718;2023-09-30T00:01:41;12.90;76.20
81315;DHT22;72214;52.510;5.718;2023-09-30T00:04:10;12.90;76.20
81315;DHT22;72214;52.510;5.718;2023-09-30T00:06:39;12.90;76.20
81315;DHT22;72214;52.510;5.718;2023-09-30T00:09:08;12.90;76.20
81315;DHT22;72214;52.510;5.718;2023-09-30T00:11:38;12.90;76.20
81315;DHT22;72214;52.510;5.718;2023-09-30T00:14:09;12.90;76.20
81315;DHT22;72214;52.510;5.718;2023-09-30T00:16:39;12.90;76.20
81315;DHT22;72214;52.510;5.718;2023-09-30T00:19:08;12.90;76.20
81315;DHT22;72214;52.510;5.718;2023-09-30T00:21:37;12.90;76.20
81315;DHT22;72214;52.510;5.718;2023-09-30T00:24:06;12.90;76.20
81315;DHT22;72214;52.510;5.718;2023-09-30T00:26:35;12.90;76.30
81315;DHT22;72214;52.510;5.718;2023-09-30T00:29:05;12.90;76.30
81315;DHT22;72214;52.510;5.718;2023-09-30T00:31:37;12.80;76.30
81315;DHT22;72214;52.510;5.718;2023-09-30T00:34:07;12.80;76.40
81315;DHT22;72214;52.510;5.718;2023-09-30T00:36:36;12.80;76.40
81315;DHT22;72214;52.510;5.718;2023-09-30T00:39:07;12.80;76.40
81315;DHT22;72214;52.510;5.718;2023-09-30T00:41:38;12.80;76.50
81315;DHT22;72214;52.510;5.718;2023-09-30T00:44:08;12.80;76.50
81315;DHT22;72214;52.510;5.718;2023-09-30T00:46:40;12.80;76.50
81315;DHT22;72214;52.510;5.718;2023-09-30T00:49:10;12.80;76.50
81315;DHT22;72214;52.510;5.718;2023-09-30T00:51:44;12.80;76.50
81315;DHT22;72214;52.510;5.718;2023-09-30T00:54:16;12.80;76.60
81315;DHT22;72214;52.510;5.718;2023-09-30T00:56:47;12.80;76.60
81315;DHT22;72214;52.510;5.718;2023-09-30T00:59:18;12.80;76.60
81315;DHT22;72214;52.510;5.718;2023-09-30T01:01:51;12.80;76.60
81315;DHT22;72214;52.510;5.718;2023-09-30T01:04:21;12.80;76.70
81315;DHT22;72214;52.510;5.718;2023-09-30T01:06:52;12.80;76.70
81315;DHT22;72214;52.510;5.718;2023-09-30T01:09:23;12.80;76.70
81315;DHT22;72214;52.510;5.718;2023-09-30T01:11:53;12.70;76.70
81315;DHT22;72214;52.510;5.718;2023-09-30T01:14:30;12.70;76.80
81315;DHT22;72214;52.510;5.718;2023-09-30T01:17:03;12.70;76.80
81315;DHT22;72214;52.510;5.718;2023-09-30T01:19:35;12.70;76.80
81315;DHT22;72214;52.510;5.718;2023-09-30T01:22:07;12.70;76.80
81315;DHT22;72214;52.510;5.718;2023-09-30T01:24:40;12.70;76.80
81315;DHT22;72214;52.510;5.718;2023-09-30T01:27:09;12.70;76.80
81315;DHT22;72214;52.510;5.718;2023-09-30T01:29:39;12.70;76.80
81315;DHT22;72214;52.510;5.718;2023-09-30T01:32:08;12.60;76.80
81315;DHT22;72214;52.510;5.718;2023-09-30T01:34:37;12.60;76.80
81315;DHT22;72214;52.510;5.718;2023-09-30T01:37:09;12.60;76.90
81315;DHT22;72214;52.510;5.718;2023-09-30T01:39:39;12.50;76.90
81315;DHT22;72214;52.510;5.718;2023-09-30T01:42:10;12.50;76.80
81315;DHT22;72214;52.510;5.718;2023-09-30T01:44:39;12.50;76.90
81315;DHT22;72214;52.510;5.718;2023-09-30T01:47:09;12.50;76.90
81315;DHT22;72214;52.510;5.718;2023-09-30T01:49:38;12.50;76.90
81315;DHT22;72214;52.510;5.718;2023-09-30T01:52:10;12.50;76.90
81315;DHT22;72214;52.510;5.718;2023-09-30T01:54:39;12.50;76.90
81315;DHT22;72214;52.510;5.718;2023-09-30T01:57:08;12.50;76.90
81315;DHT22;72214;52.510;5.718;2023-09-30T01:59:38;12.50;76.90
81315;DHT22;72214;52.510;5.718;2023-09-30T02:02:07;12.50;76.90
81315;DHT22;72214;52.510;5.718;2023-09-30T02:04:36;12.50;76.90
81315;DHT22;72214;52.510;5.718;2023-09-30T02:07:09;12.50;76.90
81315;DHT22;72214;52.510;5.718;2023-09-30T02:09:38;12.50;77.00
81315;DHT22;72214;52.510;5.718;2023-09-30T02:12:07;12.50;77.00
81315;DHT22;72214;52.510;5.718;2023-09-30T02:14:37;12.50;77.00
81315;DHT22;72214;52.510;5.718;2023-09-30T02:17:07;12.50;77.00
81315;DHT22;72214;52.510;5.718;2023-09-30T02:19:37;12.50;77.00
81315;DHT22;72214;52.510;5.718;2023-09-30T02:22:09;12.50;77.00
81315;DHT22;72214;52.510;5.718;2023-09-30T02:24:40;12.40;77.10
81315;DHT22;72214;52.510;5.718;2023-09-30T02:27:09;12.50;77.00
81315;DHT22;72214;52.510;5.718;2023-09-30T02:29:40;12.40;77.00
81315;DHT22;72214;52.510;5.718;2023-09-30T02:32:09;12.40;77.10
81315;DHT22;72214;52.510;5.718;2023-09-30T02:34:40;12.30;77.10
81315;DHT22;72214;52.510;5.718;2023-09-30T02:37:13;12.30;77.10
81315;DHT22;72214;52.510;5.718;2023-09-30T02:39:43;12.40;77.20
81315;DHT22;72214;52.510;5.718;2023-09-30T02:42:12;12.30;77.20
81315;DHT22;72214;52.510;5.718;2023-09-30T02:44:41;12.30;77.20
81315;DHT22;72214;52.510;5.718;2023-09-30T02:47:10;12.30;77.20
81315;DHT22;72214;52.510;5.718;2023-09-30T02:49:39;12.30;77.20
81315;DHT22;72214;52.510;5.718;2023-09-30T02:52:09;12.30;77.20
81315;DHT22;72214;52.510;5.718;2023-09-30T02:54:41;12.30;77.20
81315;DHT22;72214;52.510;5.718;2023-09-30T02:57:10;12.30;77.20
81315;DHT22;72214;52.510;5.718;2023-09-30T02:59:39;12.30;77.30
81315;DHT22;72214;52.510;5.718;2023-09-30T03:02:09;12.20;77.20
81315;DHT22;72214;52.510;5.718;2023-09-30T03:04:38;12.30;77.30
81315;DHT22;72214;52.510;5.718;2023-09-30T03:07:10;12.20;77.20
81315;DHT22;72214;52.510;5.718;2023-09-30T03:09:42;12.20;77.30
81315;DHT22;72214;52.510;5.718;2023-09-30T03:12:11;12.20;77.30
81315;DHT22;72214;52.510;5.718;2023-09-30T03:14:40;12.20;77.40
81315;DHT22;72214;52.510;5.718;2023-09-30T03:17:11;12.10;77.40
81315;DHT22;72214;52.510;5.718;2023-09-30T03:19:40;12.10;77.40
81315;DHT22;72214;52.510;5.718;2023-09-30T03:22:09;12.10;77.40
81315;DHT22;72214;52.510;5.718;2023-09-30T03:24:42;12.10;77.40
81315;DHT22;72214;52.510;5.718;2023-09-30T03:27:11;12.10;77.40
81315;DHT22;72214;52.510;5.718;2023-09-30T03:29:41;12.00;77.50
81315;DHT22;72214;52.510;5.718;2023-09-30T03:32:10;12.00;77.50
81315;DHT22;72214;52.510;5.718;2023-09-30T03:34:40;12.00;77.50
81315;DHT22;72214;52.510;5.718;2023-09-30T03:37:11;12.00;77.50
81315;DHT22;72214;52.510;5.718;2023-09-30T03:39:43;12.00;77.50
81315;DHT22;72214;52.510;5.718;2023-09-30T03:42:15;12.00;77.50
81315;DHT22;72214;52.510;5.718;2023-09-30T03:44:44;12.00;77.50
81315;DHT22;72214;52.510;5.718;2023-09-30T03:47:14;12.00;77.50
81315;DHT22;72214;52.510;5.718;2023-09-30T03:49:43;12.00;77.60
81315;DHT22;72214;52.510;5.718;2023-09-30T03:52:14;12.00;77.60
81315;DHT22;72214;52.510;5.718;2023-09-30T03:54:47;12.00;77.60
81315;DHT22;72214;52.510;5.718;2023-09-30T03:57:16;12.00;77.70
81315;DHT22;72214;52.510;5.718;2023-09-30T03:59:45;12.00;77.70
81315;DHT22;72214;52.510;5.718;2023-09-30T04:02:14;12.00;77.70
81315;DHT22;72214;52.510;5.718;2023-09-30T04:04:45;12.00;77.70
81315;DHT22;72214;52.510;5.718;2023-09-30T04:07:17;12.00;77.80
81315;DHT22;72214;52.510;5.718;2023-09-30T04:09:50;12.00;77.70
81315;DHT22;72214;52.510;5.718;2023-09-30T04:12:19;12.00;77.80
81315;DHT22;72214;52.510;5.718;2023-09-30T04:14:49;12.00;77.80
81315;DHT22;72214;52.510;5.718;2023-09-30T04:17:19;12.00;77.80
81315;DHT22;72214;52.510;5.718;2023-09-30T04:19:49;12.10;77.90
81315;DHT22;72214;52.510;5.718;2023-09-30T04:22:19;12.10;77.90
81315;DHT22;72214;52.510;5.718;2023-09-30T04:24:53;12.10;77.90
81315;DHT22;72214;52.510;5.718;2023-09-30T04:27:22;12.10;77.90
81315;DHT22;72214;52.510;5.718;2023-09-30T04:29:51;12.10;77.90
81315;DHT22;72214;52.510;5.718;2023-09-30T04:32:21;12.00;78.00
81315;DHT22;72214;52.510;5.718;2023-09-30T04:34:52;12.00;78.00
81315;DHT22;72214;52.510;5.718;2023-09-30T04:37:21;12.00;78.10
81315;DHT22;72214;52.510;5.718;2023-09-30T04:39:52;12.00;78.10
81315;DHT22;72214;52.510;5.718;2023-09-30T04:42:22;12.00;78.10
81315;DHT22;72214;52.510;5.718;2023-09-30T04:44:51;12.00;78.00
81315;DHT22;72214;52.510;5.718;2023-09-30T04:47:21;12.00;78.10
81315;DHT22;72214;52.510;5.718;2023-09-30T04:49:51;12.00;78.10
81315;DHT22;72214;52.510;5.718;2023-09-30T04:52:20;12.00;78.20
81315;DHT22;72214;52.510;5.718;2023-09-30T04:54:55;12.00;78.10
81315;DHT22;72214;52.510;5.718;2023-09-30T04:57:26;12.00;78.10
81315;DHT22;72214;52.510;5.718;2023-09-30T04:59:56;12.00;78.10
81315;DHT22;72214;52.510;5.718;2023-09-30T05:02:26;12.00;78.20
81315;DHT22;72214;52.510;5.718;2023-09-30T05:04:56;12.00;78.20
81315;DHT22;72214;52.510;5.718;2023-09-30T05:07:25;11.90;78.20
81315;DHT22;72214;52.510;5.718;2023-09-30T05:09:58;11.90;78.10
81315;DHT22;72214;52.510;5.718;2023-09-30T05:12:31;11.90;78.20
81315;DHT22;72214;52.510;5.718;2023-09-30T05:15:01;11.90;78.10
81315;DHT22;72214;52.510;5.718;2023-09-30T05:17:32;11.90;78.20
81315;DHT22;72214;52.510;5.718;2023-09-30T05:20:01;11.90;78.10
81315;DHT22;72214;52.510;5.718;2023-09-30T05:22:33;11.90;78.20
81315;DHT22;72214;52.510;5.718;2023-09-30T05:25:05;11.90;78.20
81315;DHT22;72214;52.510;5.718;2023-09-30T05:27:35;11.90;78.20
81315;DHT22;72214;52.510;5.718;2023-09-30T05:30:05;11.90;78.20
81315;DHT22;72214;52.510;5.718;2023-09-30T05:32:37;11.90;78.20
81315;DHT22;72214;52.510;5.718;2023-09-30T05:35:07;11.90;78.20
81315;DHT22;72214;52.510;5.718;2023-09-30T05:37:39;11.90;78.20
81315;DHT22;72214;52.510;5.718;2023-09-30T05:40:11;11.80;78.20
81315;DHT22;72214;52.510;5.718;2023-09-30T05:42:48;11.90;78.20
81315;DHT22;72214;52.510;5.718;2023-09-30T05:45:17;11.80;78.20
81315;DHT22;72214;52.510;5.718;2023-09-30T05:47:47;11.80;78.20
81315;DHT22;72214;52.510;5.718;2023-09-30T05:50:18;11.90;78.10
81315;DHT22;72214;52.510;5.718;2023-09-30T05:52:51;11.80;78.10
81315;DHT22;72214;52.510;5.718;2023-09-30T05:55:25;11.70;78.10
81315;DHT22;72214;52.510;5.718;2023-09-30T05:57:54;11.70;78.20
81315;DHT22;72214;52.510;5.718;2023-09-30T06:00:23;11.80;78.20
81315;DHT22;72214;52.510;5.718;2023-09-30T06:02:54;11.80;78.20
81315;DHT22;72214;52.510;5.718;2023-09-30T06:05:24;11.80;78.20
81315;DHT22;72214;52.510;5.718;2023-09-30T06:07:56;11.90;78.30
81315;DHT22;72214;52.510;5.718;2023-09-30T06:10:27;11.90;78.30
81315;DHT22;72214;52.510;5.718;2023-09-30T06:12:57;11.90;78.30
81315;DHT22;72214;52.510;5.718;2023-09-30T06:15:28;11.90;78.40
81315;DHT22;72214;52.510;5.718;2023-09-30T06:17:58;12.00;78.40
81315;DHT22;72214;52.510;5.718;2023-09-30T06:20:27;12.00;78.40
81315;DHT22;72214;52.510;5.718;2023-09-30T06:22:57;12.00;78.50
81315;DHT22;72214;52.510;5.718;2023-09-30T06:25:29;12.10;78.50
81315;DHT22;72214;52.510;5.718;2023-09-30T06:27:59;12.10;78.60
81315;DHT22;72214;52.510;5.718;2023-09-30T06:30:29;12.20;78.60
81315;DHT22;72214;52.510;5.718;2023-09-30T06:33:00;12.20;78.70
81315;DHT22;72214;52.510;5.718;2023-09-30T06:35:31;12.30;78.70
81315;DHT22;72214;52.510;5.718;2023-09-30T06:38:03;12.30;78.80
81315;DHT22;72214;52.510;5.718;2023-09-30T06:40:35;12.30;78.90
81315;DHT22;72214;52.510;5.718;2023-09-30T06:43:08;12.40;78.90
81315;DHT22;72214;52.510;5.718;2023-09-30T06:45:38;12.50;78.90
81315;DHT22;72214;52.510;5.718;2023-09-30T06:48:08;12.50;79.00
81315;DHT22;72214;52.510;5.718;2023-09-30T06:50:40;12.50;79.00
81315;DHT22;72214;52.510;5.718;2023-09-30T06:53:09;12.50;79.10
81315;DHT22;72214;52.510;5.718;2023-09-30T06:55:41;12.50;79.10
81315;DHT22;72214;52.510;5.718;2023-09-30T06:58:11;12.60;79.20
81315;DHT22;72214;52.510;5.718;2023-09-30T07:00:41;12.70;79.20
81315;DHT22;72214;52.510;5.718;2023-09-30T07:03:10;12.70;79.20
81315;DHT22;72214;52.510;5.718;2023-09-30T07:05:41;12.70;79.30
81315;DHT22;72214;52.510;5.718;2023-09-30T07:08:10;12.70;79.40
81315;DHT22;72214;52.510;5.718;2023-09-30T07:10:43;12.80;79.40
81315;DHT22;72214;52.510;5.718;2023-09-30T07:13:12;12.80;79.50
81315;DHT22;72214;52.510;5.718;2023-09-30T07:15:42;12.90;79.50
81315;DHT22;72214;52.510;5.718;2023-09-30T07:18:11;12.90;79.50
81315;DHT22;72214;52.510;5.718;2023-09-30T07:20:40;12.90;79.60
81315;DHT22;72214;52.510;5.718;2023-09-30T07:23:10;13.00;79.60
81315;DHT22;72214;52.510;5.718;2023-09-30T07:25:42;13.00;79.70
81315;DHT22;72214;52.510;5.718;2023-09-30T07:28:11;13.10;79.70
81315;DHT22;72214;52.510;5.718;2023-09-30T07:30:40;13.10;79.70
81315;DHT22;72214;52.510;5.718;2023-09-30T07:33:10;13.20;79.70
81315;DHT22;72214;52.510;5.718;2023-09-30T07:35:39;13.30;79.70
81315;DHT22;72214;52.510;5.718;2023-09-30T07:38:08;13.40;79.80
81315;DHT22;72214;52.510;5.718;2023-09-30T07:40:37;13.50;79.80
81315;DHT22;72214;52.510;5.718;2023-09-30T07:43:10;13.50;79.80
81315;DHT22;72214;52.510;5.718;2023-09-30T07:45:39;13.60;79.90
81315;DHT22;72214;52.510;5.718;2023-09-30T07:48:10;13.60;79.80
81315;DHT22;72214;52.510;5.718;2023-09-30T07:50:40;13.80;79.80
81315;DHT22;72214;52.510;5.718;2023-09-30T07:53:09;13.90;79.90
81315;DHT22;72214;52.510;5.718;2023-09-30T07:55:38;13.90;79.90
81315;DHT22;72214;52.510;5.718;2023-09-30T07:58:10;13.90;79.90
81315;DHT22;72214;52.510;5.718;2023-09-30T08:00:40;14.00;80.00
81315;DHT22;72214;52.510;5.718;2023-09-30T08:03:09;14.00;80.00
81315;DHT22;72214;52.510;5.718;2023-09-30T08:05:38;14.10;80.00
81315;DHT22;72214;52.510;5.718;2023-09-30T08:08:08;14.20;80.10
81315;DHT22;72214;52.510;5.718;2023-09-30T08:10:38;14.20;80.10
81315;DHT22;72214;52.510;5.718;2023-09-30T08:13:09;14.20;80.20
81315;DHT22;72214;52.510;5.718;2023-09-30T08:15:39;14.20;80.20
81315;DHT22;72214;52.510;5.718;2023-09-30T08:18:08;14.30;80.30
81315;DHT22;72214;52.510;5.718;2023-09-30T08:20:37;14.40;80.30
81315;DHT22;72214;52.510;5.718;2023-09-30T08:23:06;14.50;80.20
81315;DHT22;72214;52.510;5.718;2023-09-30T08:25:36;14.50;80.30
81315;DHT22;72214;52.510;5.718;2023-09-30T08:28:05;14.60;80.30
81315;DHT22;72214;52.510;5.718;2023-09-30T08:30:38;14.70;80.20
81315;DHT22;72214;52.510;5.718;2023-09-30T08:33:07;14.80;80.20
81315;DHT22;72214;52.510;5.718;2023-09-30T08:35:37;14.90;80.20
81315;DHT22;72214;52.510;5.718;2023-09-30T08:38:03;14.90;80.20
81315;DHT22;72214;52.510;5.718;2023-09-30T08:40:32;15.00;80.20
81315;DHT22;72214;52.510;5.718;2023-09-30T08:43:04;15.10;80.10
81315;DHT22;72214;52.510;5.718;2023-09-30T08:45:38;15.20;80.10
81315;DHT22;72214;52.510;5.718;2023-09-30T08:48:08;15.30;80.00
81315;DHT22;72214;52.510;5.718;2023-09-30T08:50:39;15.40;79.90
81315;DHT22;72214;52.510;5.718;2023-09-30T08:53:10;15.50;79.90
81315;DHT22;72214;52.510;5.718;2023-09-30T08:55:41;15.60;79.80
81315;DHT22;72214;52.510;5.718;2023-09-30T08:58:12;15.60;79.70
81315;DHT22;72214;52.510;5.718;2023-09-30T09:00:44;15.80;79.70
81315;DHT22;72214;52.510;5.718;2023-09-30T09:03:14;15.80;79.70
81315;DHT22;72214;52.510;5.718;2023-09-30T09:05:43;16.00;79.60
81315;DHT22;72214;52.510;5.718;2023-09-30T09:08:12;16.00;79.50
81315;DHT22;72214;52.510;5.718;2023-09-30T09:10:54;16.10;79.60
81315;DHT22;72214;52.510;5.718;2023-09-30T09:13:25;16.20;79.50
81315;DHT22;72214;52.510;5.718;2023-09-30T09:16:09;16.20;79.50
81315;DHT22;72214;52.510;5.718;2023-09-30T09:18:38;16.40;79.50
81315;DHT22;72214;52.510;5.718;2023-09-30T09:21:09;16.40;79.30
81315;DHT22;72214;52.510;5.718;2023-09-30T09:23:40;16.40;79.30
81315;DHT22;72214;52.510;5.718;2023-09-30T09:26:10;16.50;79.20
81315;DHT22;72214;52.510;5.718;2023-09-30T09:28:40;16.60;79.20
81315;DHT22;72214;52.510;5.718;2023-09-30T09:31:25;16.70;79.20
81315;DHT22;72214;52.510;5.718;2023-09-30T09:33:55;16.80;79.10
81315;DHT22;72214;52.510;5.718;2023-09-30T09:36:39;16.90;79.00
81315;DHT22;72214;52.510;5.718;2023-09-30T09:39:09;16.90;79.00
81315;DHT22;72214;52.510;5.718;2023-09-30T09:41:52;17.00;78.80
81315;DHT22;72214;52.510;5.718;2023-09-30T09:44:24;17.10;78.80
81315;DHT22;72214;52.510;5.718;2023-09-30T09:46:58;17.20;78.80
81315;DHT22;72214;52.510;5.718;2023-09-30T09:49:28;17.20;78.80
81315;DHT22;72214;52.510;5.718;2023-09-30T09:51:58;17.30;78.70
81315;DHT22;72214;52.510;5.718;2023-09-30T09:54:29;17.40;78.70
81315;DHT22;72214;52.510;5.718;2023-09-30T09:57:00;17.50;78.70
81315;DHT22;72214;52.510;5.718;2023-09-30T09:59:30;17.50;78.60
81315;DHT22;72214;52.510;5.718;2023-09-30T10:02:10;17.60;78.50
81315;DHT22;72214;52.510;5.718;2023-09-30T10:04:41;17.80;78.40
81315;DHT22;72214;52.510;5.718;2023-09-30T10:07:14;17.80;78.40
81315;DHT22;72214;52.510;5.718;2023-09-30T10:09:46;18.00;78.30
81315;DHT22;72214;52.510;5.718;2023-09-30T10:12:17;18.00;78.20
81315;DHT22;72214;52.510;5.718;2023-09-30T10:14:47;18.10;78.10
81315;DHT22;72214;52.510;5.718;2023-09-30T10:17:19;18.20;78.00
81315;DHT22;72214;52.510;5.718;2023-09-30T10:20:04;18.30;77.90
81315;DHT22;72214;52.510;5.718;2023-09-30T10:22:34;18.40;77.70
81315;DHT22;72214;52.510;5.718;2023-09-30T10:25:01;18.50;77.70
81315;DHT22;72214;52.510;5.718;2023-09-30T10:27:32;18.50;77.40
81315;DHT22;72214;52.510;5.718;2023-09-30T10:30:08;18.60;77.30
81315;DHT22;72214;52.510;5.718;2023-09-30T10:33:15;18.60;77.20
81315;DHT22;72214;52.510;5.718;2023-09-30T10:35:45;18.70;77.10
81315;DHT22;72214;52.510;5.718;2023-09-30T10:38:37;18.80;77.00
81315;DHT22;72214;52.510;5.718;2023-09-30T10:41:08;18.80;76.70
81315;DHT22;72214;52.510;5.718;2023-09-30T10:43:39;18.90;76.80
81315;DHT22;72214;52.510;5.718;2023-09-30T10:46:30;18.90;76.70
81315;DHT22;72214;52.510;5.718;2023-09-30T10:49:15;19.00;76.40
81315;DHT22;72214;52.510;5.718;2023-09-30T10:51:45;19.10;76.10
81315;DHT22;72214;52.510;5.718;2023-09-30T10:54:15;19.10;76.20
81315;DHT22;72214;52.510;5.718;2023-09-30T10:56:50;19.20;75.90
81315;DHT22;72214;52.510;5.718;2023-09-30T10:59:21;19.30;75.70
81315;DHT22;72214;52.510;5.718;2023-09-30T11:01:51;19.40;75.50
81315;DHT22;72214;52.510;5.718;2023-09-30T11:04:23;19.40;75.40
81315;DHT22;72214;52.510;5.718;2023-09-30T11:06:53;19.30;75.30
81315;DHT22;72214;52.510;5.718;2023-09-30T11:09:23;19.30;75.20
81315;DHT22;72214;52.510;5.718;2023-09-30T11:11:52;19.30;75.20
81315;DHT22;72214;52.510;5.718;2023-09-30T11:14:23;19.20;75.10
81315;DHT22;72214;52.510;5.718;2023-09-30T11:16:54;19.10;75.10
81315;DHT22;72214;52.510;5.718;2023-09-30T11:19:34;19.10;75.00
81315;DHT22;72214;52.510;5.718;2023-09-30T11:22:04;19.00;74.80
81315;DHT22;72214;52.510;5.718;2023-09-30T11:24:35;19.00;74.90
81315;DHT22;72214;52.510;5.718;2023-09-30T11:27:04;18.90;74.90
81315;DHT22;72214;52.510;5.718;2023-09-30T11:29:35;18.90;74.80
81315;DHT22;72214;52.510;5.718;2023-09-30T11:32:04;18.80;74.70
81315;DHT22;72214;52.510;5.718;2023-09-30T11:34:36;18.70;74.70
81315;DHT22;72214;52.510;5.718;2023-09-30T11:37:08;18.70;74.70
81315;DHT22;72214;52.510;5.718;2023-09-30T11:39:37;18.70;74.70
81315;DHT22;72214;52.510;5.718;2023-09-30T11:42:15;18.70;74.60
81315;DHT22;72214;52.510;5.718;2023-09-30T11:44:46;18.70;74.50
81315;DHT22;72214;52.510;5.718;2023-09-30T11:47:17;18.70;74.60
81315;DHT22;72214;52.510;5.718;2023-09-30T11:49:59;18.70;74.70
81315;DHT22;72214;52.510;5.718;2023-09-30T11:52:30;18.70;74.70
81315;DHT22;72214;52.510;5.718;2023-09-30T11:55:05;18.60;74.90
81315;DHT22;72214;52.510;5.718;2023-09-30T11:57:35;18.60;74.70
81315;DHT22;72214;52.510;5.718;2023-09-30T12:00:05;18.60;74.70
81315;DHT22;72214;52.510;5.718;2023-09-30T12:02:39;18.60;74.60
81315;DHT22;72214;52.510;5.718;2023-09-30T12:05:11;18.70;74.50
81315;DHT22;72214;52.510;5.718;2023-09-30T12:07:40;18.70;74.40
81315;DHT22;72214;52.510;5.718;2023-09-30T12:10:10;18.70;74.40
81315;DHT22;72214;52.510;5.718;2023-09-30T12:12:41;18.70;74.30
81315;DHT22;72214;52.510;5.718;2023-09-30T12:15:10;18.80;74.20
81315;DHT22;72214;52.510;5.718;2023-09-30T12:17:39;18.80;74.10
81315;DHT22;72214;52.510;5.718;2023-09-30T12:20:12;18.90;74.00
81315;DHT22;72214;52.510;5.718;2023-09-30T12:22:44;19.00;73.80
81315;DHT22;72214;52.510;5.718;2023-09-30T12:25:13;19.00;73.70
81315;DHT22;72214;52.510;5.718;2023-09-30T12:27:45;19.10;73.60
81315;DHT22;72214;52.510;5.718;2023-09-30T12:30:14;19.20;73.30
81315;DHT22;72214;52.510;5.718;2023-09-30T12:32:46;19.30;73.20
81315;DHT22;72214;52.510;5.718;2023-09-30T12:35:18;19.40;72.90
81315;DHT22;72214;52.510;5.718;2023-09-30T12:37:47;19.50;72.80
81315;DHT22;72214;52.510;5.718;2023-09-30T12:40:18;19.70;72.60
81315;DHT22;72214;52.510;5.718;2023-09-30T12:42:48;19.70;72.40
81315;DHT22;72214;52.510;5.718;2023-09-30T12:45:17;19.80;72.20
81315;DHT22;72214;52.510;5.718;2023-09-30T12:47:46;19.90;71.90
81315;DHT22;72214;52.510;5.718;2023-09-30T12:50:21;19.90;71.70
81315;DHT22;72214;52.510;5.718;2023-09-30T12:52:50;20.00;71.60
81315;DHT22;72214;52.510;5.718;2023-09-30T12:55:19;20.00;71.60
81315;DHT22;72214;52.510;5.718;2023-09-30T12:57:48;20.00;71.50
81315;DHT22;72214;52.510;5.718;2023-09-30T13:00:18;20.00;71.30
81315;DHT22;72214;52.510;5.718;2023-09-30T13:02:48;20.10;71.10
81315;DHT22;72214;52.510;5.718;2023-09-30T13:05:17;20.10;71.00
81315;DHT22;72214;52.510;5.718;2023-09-30T13:07:49;20.10;71.00
81315;DHT22;72214;52.510;5.718;2023-09-30T13:10:18;20.10;70.90
81315;DHT22;72214;52.510;5.718;2023-09-30T13:12:48;20.10;70.70
81315;DHT22;72214;52.510;5.718;2023-09-30T13:15:18;20.10;70.70
81315;DHT22;72214;52.510;5.718;2023-09-30T13:17:49;20.10;70.70
81315;DHT22;72214;52.510;5.718;2023-09-30T13:20:18;20.00;70.80
81315;DHT22;72214;52.510;5.718;2023-09-30T13:22:50;20.00;70.80
81315;DHT22;72214;52.510;5.718;2023-09-30T13:25:19;20.00;70.70
81315;DHT22;72214;52.510;5.718;2023-09-30T13:27:48;20.00;70.70
81315;DHT22;72214;52.510;5.718;2023-09-30T13:30:18;20.00;70.70
81315;DHT22;72214;52.510;5.718;2023-09-30T13:32:49;20.00;70.70
81315;DHT22;72214;52.510;5.718;2023-09-30T13:35:18;20.00;70.80
81315;DHT22;72214;52.510;5.718;2023-09-30T13:37:50;19.90;70.80
81315;DHT22;72214;52.510;5.718;2023-09-30T13:40:19;19.90;70.70
81315;DHT22;72214;52.510;5.718;2023-09-30T13:42:48;19.90;70.70
81315;DHT22;72214;52.510;5.718;2023-09-30T13:45:18;19.90;70.60
81315;DHT22;72214;52.510;5.718;2023-09-30T13:47:47;19.90;70.50
81315;DHT22;72214;52.510;5.718;2023-09-30T13:50:16;19.90;70.50
81315;DHT22;72214;52.510;5.718;2023-09-30T13:52:46;19.90;70.50
81315;DHT22;72214;52.510;5.718;2023-09-30T13:55:17;19.90;70.40
81315;DHT22;72214;52.510;5.718;2023-09-30T13:57:48;19.90;70.30
81315;DHT22;72214;52.510;5.718;2023-09-30T14:00:17;19.80;70.20
81315;DHT22;72214;52.510;5.718;2023-09-30T14:02:47;19.70;70.20
81315;DHT22;72214;52.510;5.718;2023-09-30T14:05:17;19.70;70.10
81315;DHT22;72214;52.510;5.718;2023-09-30T14:07:46;19.70;70.10
81315;DHT22;72214;52.510;5.718;2023-09-30T14:10:20;19.70;69.90
81315;DHT22;72214;52.510;5.718;2023-09-30T14:12:50;19.70;69.90
81315;DHT22;72214;52.510;5.718;2023-09-30T14:15:20;19.70;69.90
81315;DHT22;72214;52.510;5.718;2023-09-30T14:17:49;19.70;69.80
81315;DHT22;72214;52.510;5.718;2023-09-30T14:20:18;19.70;69.90
81315;DHT22;72214;52.510;5.718;2023-09-30T14:22:48;19.70;69.90
81315;DHT22;72214;52.510;5.718;2023-09-30T14:25:20;19.60;69.80
81315;DHT22;72214;52.510;5.718;2023-09-30T14:27:49;19.50;69.70
81315;DHT22;72214;52.510;5.718;2023-09-30T14:30:18;19.50;69.80
81315;DHT22;72214;52.510;5.718;2023-09-30T14:32:50;19.50;69.80
81315;DHT22;72214;52.510;5.718;2023-09-30T14:35:20;19.50;69.70
81315;DHT22;72214;52.510;5.718;2023-09-30T14:37:49;19.50;69.70
81315;DHT22;72214;52.510;5.718;2023-09-30T14:40:23;19.50;69.70
81315;DHT22;72214;52.510;5.718;2023-09-30T14:42:52;19.50;69.70
81315;DHT22;72214;52.510;5.718;2023-09-30T14:45:22;19.50;69.80
81315;DHT22;72214;52.510;5.718;2023-09-30T14:47:51;19.50;69.70
81315;DHT22;72214;52.510;5.718;2023-09-30T14:50:20;19.50;69.70
81315;DHT22;72214;52.510;5.718;2023-09-30T14:52:49;19.50;69.70
81315;DHT22;72214;52.510;5.718;2023-09-30T14:55:18;19.50;69.70
81315;DHT22;72214;52.510;5.718;2023-09-30T14:57:50;19.50;69.60
81315;DHT22;72214;52.510;5.718;2023-09-30T15:00:20;19.50;69.60
81315;DHT22;72214;52.510;5.718;2023-09-30T15:02:51;19.50;69.60
81315;DHT22;72214;52.510;5.718;2023-09-30T15:05:20;19.50;69.40
81315;DHT22;72214;52.510;5.718;2023-09-30T15:07:50;19.60;69.30
81315;DHT22;72214;52.510;5.718;2023-09-30T15:10:19;19.60;69.20
81315;DHT22;72214;52.510;5.718;2023-09-30T15:12:51;19.70;69.10
81315;DHT22;72214;52.510;5.718;2023-09-30T15:15:20;19.70;69.00
81315;DHT22;72214;52.510;5.718;2023-09-30T15:17:50;19.70;69.00
81315;DHT22;72214;52.510;5.718;2023-09-30T15:20:20;19.70;69.10
81315;DHT22;72214;52.510;5.718;2023-09-30T15:22:51;19.70;69.10
81315;DHT22;72214;52.510;5.718;2023-09-30T15:25:21;19.60;69.00
81315;DHT22;72214;52.510;5.718;2023-09-30T15:27:52;19.60;69.10
81315;DHT22;72214;52.510;5.718;2023-09-30T15:30:21;19.60;69.10
81315;DHT22;72214;52.510;5.718;2023-09-30T15:32:51;19.50;69.10
81315;DHT22;72214;52.510;5.718;2023-09-30T15:35:20;19.50;69.10
81315;DHT22;72214;52.510;5.718;2023-09-30T15:37:49;19.50;69.10
81315;DHT22;72214;52.510;5.718;2023-09-30T15:40:18;19.50;69.10
81315;DHT22;72214;52.510;5.718;2023-09-30T15:42:47;19.50;69.20
81315;DHT22;72214;52.510;5.718;2023-09-30T15:45:19;19.50;69.30
81315;DHT22;72214;52.510;5.718;2023-09-30T15:47:49;19.50;69.30
81315;DHT22;72214;52.510;5.718;2023-09-30T15:50:19;19.50;69.30
81315;DHT22;72214;52.510;5.718;2023-09-30T15:52:48;19.50;69.40